sensor_id;sensor_type;location;lat;lon;timestamp;P1;durP1;ratioP1;P2;durP2;ratioP2
41253;SDS011;26987;59.928;30.306;2022-11-22T00:00:27;12.30;;;5.10;;
41253;SDS011;26987;59.928;30.306;2022-11-22T00:02:56;10.30;;;4.80;;
41253;SDS011;26987;59.928;30.306;2022-11-22T00:05:23;8.57;;;4.10;;
41253;SDS011;26987;59.928;30.306;2022-11-22T00:07:51;9.90;;;5.40;;
41253;SDS011;26987;59.928;30.306;2022-11-22T00:10:19;10.60;;;5.37;;
41253;SDS011;26987;59.928;30.306;2022-11-22T00:12:46;12.37;;;5.57;;
41253;SDS011;26987;59.928;30.306;2022-11-22T00:15:14;14.67;;;5.20;;
41253;SDS011;26987;59.928;30.306;2022-11-22T00:17:42;9.53;;;4.73;;
41253;SDS011;26987;59.928;30.306;2022-11-22T00:20:11;10.10;;;4.50;;
41253;SDS011;26987;59.928;30.306;2022-11-22T00:22:39;9.87;;;4.77;;
41253;SDS011;26987;59.928;30.306;2022-11-22T00:25:07;11.80;;;4.70;;
41253;SDS011;26987;59.928;30.306;2022-11-22T00:27:35;11.40;;;4.20;;
41253;SDS011;26987;59.928;30.306;2022-11-22T00:30:03;12.67;;;5.00;;
41253;SDS011;26987;59.928;30.306;2022-11-22T00:32:31;9.07;;;3.73;;
41253;SDS011;26987;59.928;30.306;2022-11-22T00:34:59;10.13;;;4.47;;
41253;SDS011;26987;59.928;30.306;2022-11-22T00:37:28;8.33;;;4.27;;
41253;SDS011;26987;59.928;30.306;2022-11-22T00:39:58;9.57;;;4.63;;
41253;SDS011;26987;59.928;30.306;2022-11-22T00:42:27;9.27;;;4.50;;
41253;SDS011;26987;59.928;30.306;2022-11-22T00:44:54;14.43;;;4.60;;
41253;SDS011;26987;59.928;30.306;2022-11-22T00:47:22;11.47;;;5.53;;
41253;SDS011;26987;59.928;30.306;2022-11-22T00:49:50;11.50;;;5.27;;
41253;SDS011;26987;59.928;30.306;2022-11-22T00:52:17;10.50;;;4.83;;
41253;SDS011;26987;59.928;30.306;2022-11-22T00:54:46;10.33;;;4.70;;
41253;SDS011;26987;59.928;30.306;2022-11-22T00:57:14;10.20;;;4.63;;
41253;SDS011;26987;59.928;30.306;2022-11-22T00:59:42;11.50;;;4.37;;
41253;SDS011;26987;59.928;30.306;2022-11-22T01:02:09;8.80;;;4.33;;
41253;SDS011;26987;59.928;30.306;2022-11-22T01:04:37;9.77;;;4.90;;
41253;SDS011;26987;59.928;30.306;2022-11-22T01:07:04;10.03;;;4.77;;
41253;SDS011;26987;59.928;30.306;2022-11-22T01:09:32;6.20;;;3.20;;
41253;SDS011;26987;59.928;30.306;2022-11-22T01:12:02;10.40;;;5.17;;
41253;SDS011;26987;59.928;30.306;2022-11-22T01:14:30;7.53;;;3.53;;
41253;SDS011;26987;59.928;30.306;2022-11-22T01:16:57;10.37;;;4.50;;
41253;SDS011;26987;59.928;30.306;2022-11-22T01:19:25;10.87;;;5.03;;
41253;SDS011;26987;59.928;30.306;2022-11-22T01:21:53;12.03;;;4.83;;
41253;SDS011;26987;59.928;30.306;2022-11-22T01:24:20;9.73;;;4.97;;
41253;SDS011;26987;59.928;30.306;2022-11-22T01:26:48;13.83;;;5.17;;
41253;SDS011;26987;59.928;30.306;2022-11-22T01:29:17;8.17;;;4.17;;
41253;SDS011;26987;59.928;30.306;2022-11-22T01:31:45;12.57;;;4.67;;
41253;SDS011;26987;59.928;30.306;2022-11-22T01:34:12;11.00;;;4.70;;
41253;SDS011;26987;59.928;30.306;2022-11-22T01:36:40;10.43;;;4.53;;
41253;SDS011;26987;59.928;30.306;2022-11-22T01:39:08;8.43;;;4.10;;
41253;SDS011;26987;59.928;30.306;2022-11-22T01:41:35;9.87;;;4.80;;
41253;SDS011;26987;59.928;30.306;2022-11-22T01:44:21;10.03;;;4.60;;
41253;SDS011;26987;59.928;30.306;2022-11-22T01:46:50;10.00;;;4.70;;
41253;SDS011;26987;59.928;30.306;2022-11-22T01:49:26;8.77;;;4.50;;
41253;SDS011;26987;59.928;30.306;2022-11-22T01:51:58;8.67;;;4.57;;
41253;SDS011;26987;59.928;30.306;2022-11-22T01:54:30;14.50;;;5.87;;
41253;SDS011;26987;59.928;30.306;2022-11-22T01:57:02;11.27;;;5.63;;
41253;SDS011;26987;59.928;30.306;2022-11-22T01:59:35;17.03;;;5.20;;
41253;SDS011;26987;59.928;30.306;2022-11-22T02:02:05;11.27;;;4.87;;
41253;SDS011;26987;59.928;30.306;2022-11-22T02:04:33;12.67;;;5.60;;
41253;SDS011;26987;59.928;30.306;2022-11-22T02:07:04;11.53;;;5.70;;
41253;SDS011;26987;59.928;30.306;2022-11-22T02:09:37;7.70;;;3.78;;
41253;SDS011;26987;59.928;30.306;2022-11-22T02:12:06;10.43;;;4.80;;
41253;SDS011;26987;59.928;30.306;2022-11-22T02:14:37;10.67;;;4.87;;
41253;SDS011;26987;59.928;30.306;2022-11-22T02:17:06;10.03;;;4.57;;
41253;SDS011;26987;59.928;30.306;2022-11-22T02:19:38;10.57;;;4.77;;
41253;SDS011;26987;59.928;30.306;2022-11-22T02:22:11;12.20;;;5.10;;
41253;SDS011;26987;59.928;30.306;2022-11-22T02:24:51;7.13;;;3.77;;
41253;SDS011;26987;59.928;30.306;2022-11-22T02:27:23;14.00;;;4.63;;
41253;SDS011;26987;59.928;30.306;2022-11-22T02:29:51;9.47;;;4.67;;
41253;SDS011;26987;59.928;30.306;2022-11-22T02:32:18;7.03;;;4.07;;
41253;SDS011;26987;59.928;30.306;2022-11-22T02:34:46;6.20;;;2.83;;
41253;SDS011;26987;59.928;30.306;2022-11-22T02:37:16;8.07;;;3.77;;
41253;SDS011;26987;59.928;30.306;2022-11-22T02:39:47;7.83;;;3.60;;
41253;SDS011;26987;59.928;30.306;2022-11-22T02:42:18;10.80;;;4.37;;
41253;SDS011;26987;59.928;30.306;2022-11-22T02:44:48;10.83;;;3.93;;
41253;SDS011;26987;59.928;30.306;2022-11-22T02:47:15;9.23;;;4.03;;
41253;SDS011;26987;59.928;30.306;2022-11-22T02:49:43;11.13;;;5.37;;
41253;SDS011;26987;59.928;30.306;2022-11-22T02:52:14;6.67;;;3.83;;
41253;SDS011;26987;59.928;30.306;2022-11-22T02:54:43;8.60;;;3.90;;
41253;SDS011;26987;59.928;30.306;2022-11-22T02:57:11;6.47;;;3.53;;
41253;SDS011;26987;59.928;30.306;2022-11-22T02:59:38;9.23;;;4.93;;
41253;SDS011;26987;59.928;30.306;2022-11-22T03:02:07;7.23;;;4.07;;
41253;SDS011;26987;59.928;30.306;2022-11-22T03:04:35;8.60;;;4.73;;
41253;SDS011;26987;59.928;30.306;2022-11-22T03:07:03;9.57;;;3.73;;
41253;SDS011;26987;59.928;30.306;2022-11-22T03:09:30;8.00;;;4.17;;
41253;SDS011;26987;59.928;30.306;2022-11-22T03:11:58;8.47;;;4.00;;
41253;SDS011;26987;59.928;30.306;2022-11-22T03:14:26;9.33;;;4.50;;
41253;SDS011;26987;59.928;30.306;2022-11-22T03:16:54;11.30;;;4.23;;
41253;SDS011;26987;59.928;30.306;2022-11-22T03:19:23;7.43;;;3.37;;
41253;SDS011;26987;59.928;30.306;2022-11-22T03:21:50;7.70;;;3.73;;
41253;SDS011;26987;59.928;30.306;2022-11-22T03:24:18;10.67;;;4.57;;
41253;SDS011;26987;59.928;30.306;2022-11-22T03:26:46;12.17;;;5.00;;
41253;SDS011;26987;59.928;30.306;2022-11-22T03:29:15;12.83;;;4.27;;
41253;SDS011;26987;59.928;30.306;2022-11-22T03:31:42;9.87;;;4.23;;
41253;SDS011;26987;59.928;30.306;2022-11-22T03:34:11;13.00;;;5.70;;
41253;SDS011;26987;59.928;30.306;2022-11-22T03:36:40;10.90;;;5.10;;
41253;SDS011;26987;59.928;30.306;2022-11-22T03:39:08;13.47;;;6.10;;
41253;SDS011;26987;59.928;30.306;2022-11-22T03:41:36;14.77;;;5.00;;
41253;SDS011;26987;59.928;30.306;2022-11-22T03:44:04;16.67;;;6.13;;
41253;SDS011;26987;59.928;30.306;2022-11-22T03:46:31;10.90;;;5.70;;
41253;SDS011;26987;59.928;30.306;2022-11-22T03:48:59;13.27;;;5.70;;
41253;SDS011;26987;59.928;30.306;2022-11-22T03:51:27;13.45;;;5.45;;
41253;SDS011;26987;59.928;30.306;2022-11-22T03:53:56;13.77;;;3.90;;
41253;SDS011;26987;59.928;30.306;2022-11-22T03:56:23;16.77;;;6.90;;
41253;SDS011;26987;59.928;30.306;2022-11-22T03:58:52;16.02;;;6.78;;
41253;SDS011;26987;59.928;30.306;2022-11-22T04:01:20;16.60;;;6.93;;
41253;SDS011;26987;59.928;30.306;2022-11-22T04:03:47;13.85;;;7.05;;
41253;SDS011;26987;59.928;30.306;2022-11-22T04:06:15;12.50;;;5.85;;
41253;SDS011;26987;59.928;30.306;2022-11-22T04:08:43;14.43;;;6.25;;
41253;SDS011;26987;59.928;30.306;2022-11-22T04:11:12;15.90;;;6.88;;
41253;SDS011;26987;59.928;30.306;2022-11-22T04:13:39;14.02;;;6.00;;
41253;SDS011;26987;59.928;30.306;2022-11-22T04:16:24;15.63;;;6.65;;
41253;SDS011;26987;59.928;30.306;2022-11-22T04:18:52;16.05;;;6.38;;
41253;SDS011;26987;59.928;30.306;2022-11-22T04:21:20;18.42;;;7.65;;
41253;SDS011;26987;59.928;30.306;2022-11-22T04:24:02;19.10;;;6.72;;
41253;SDS011;26987;59.928;30.306;2022-11-22T04:26:49;17.90;;;7.07;;
41253;SDS011;26987;59.928;30.306;2022-11-22T04:29:17;15.85;;;6.75;;
41253;SDS011;26987;59.928;30.306;2022-11-22T04:31:46;15.73;;;7.10;;
41253;SDS011;26987;59.928;30.306;2022-11-22T04:34:32;16.25;;;6.93;;
41253;SDS011;26987;59.928;30.306;2022-11-22T04:37:00;19.65;;;8.00;;
41253;SDS011;26987;59.928;30.306;2022-11-22T04:39:28;15.10;;;6.80;;
41253;SDS011;26987;59.928;30.306;2022-11-22T04:41:57;15.23;;;6.05;;
41253;SDS011;26987;59.928;30.306;2022-11-22T04:44:43;14.90;;;5.78;;
41253;SDS011;26987;59.928;30.306;2022-11-22T04:47:11;16.70;;;6.72;;
41253;SDS011;26987;59.928;30.306;2022-11-22T04:50:03;13.75;;;6.03;;
41253;SDS011;26987;59.928;30.306;2022-11-22T04:52:53;19.80;;;6.88;;
41253;SDS011;26987;59.928;30.306;2022-11-22T04:55:21;20.38;;;8.23;;
41253;SDS011;26987;59.928;30.306;2022-11-22T04:57:50;23.55;;;9.07;;
41253;SDS011;26987;59.928;30.306;2022-11-22T05:00:18;15.88;;;6.57;;
41253;SDS011;26987;59.928;30.306;2022-11-22T05:02:46;11.00;;;4.90;;
41253;SDS011;26987;59.928;30.306;2022-11-22T05:05:13;18.70;;;7.35;;
41253;SDS011;26987;59.928;30.306;2022-11-22T05:07:41;12.73;;;5.33;;
41253;SDS011;26987;59.928;30.306;2022-11-22T05:10:09;9.98;;;4.85;;
41253;SDS011;26987;59.928;30.306;2022-11-22T05:12:39;12.20;;;5.65;;
41253;SDS011;26987;59.928;30.306;2022-11-22T05:15:09;9.53;;;4.43;;
41253;SDS011;26987;59.928;30.306;2022-11-22T05:17:37;11.60;;;5.45;;
41253;SDS011;26987;59.928;30.306;2022-11-22T05:20:06;14.37;;;3.80;;
41253;SDS011;26987;59.928;30.306;2022-11-22T05:22:34;11.35;;;4.65;;
41253;SDS011;26987;59.928;30.306;2022-11-22T05:25:19;16.08;;;5.65;;
41253;SDS011;26987;59.928;30.306;2022-11-22T05:27:51;13.65;;;6.47;;
41253;SDS011;26987;59.928;30.306;2022-11-22T05:30:21;12.10;;;5.50;;
41253;SDS011;26987;59.928;30.306;2022-11-22T05:32:49;10.70;;;4.97;;
41253;SDS011;26987;59.928;30.306;2022-11-22T05:35:16;15.23;;;5.32;;
41253;SDS011;26987;59.928;30.306;2022-11-22T05:37:44;14.07;;;6.72;;
41253;SDS011;26987;59.928;30.306;2022-11-22T05:40:12;17.08;;;5.90;;
41253;SDS011;26987;59.928;30.306;2022-11-22T05:42:39;21.60;;;5.03;;
41253;SDS011;26987;59.928;30.306;2022-11-22T05:45:07;13.95;;;6.18;;
41253;SDS011;26987;59.928;30.306;2022-11-22T05:47:37;15.48;;;7.13;;
41253;SDS011;26987;59.928;30.306;2022-11-22T05:50:05;15.07;;;6.00;;
41253;SDS011;26987;59.928;30.306;2022-11-22T05:52:33;13.73;;;5.72;;
41253;SDS011;26987;59.928;30.306;2022-11-22T05:55:01;11.10;;;5.50;;
41253;SDS011;26987;59.928;30.306;2022-11-22T05:57:28;13.45;;;5.03;;
41253;SDS011;26987;59.928;30.306;2022-11-22T05:59:58;18.83;;;6.22;;
41253;SDS011;26987;59.928;30.306;2022-11-22T06:02:26;11.23;;;6.07;;
41253;SDS011;26987;59.928;30.306;2022-11-22T06:04:55;11.98;;;5.10;;
41253;SDS011;26987;59.928;30.306;2022-11-22T06:07:22;13.27;;;4.63;;
41253;SDS011;26987;59.928;30.306;2022-11-22T06:09:50;10.15;;;4.38;;
41253;SDS011;26987;59.928;30.306;2022-11-22T06:12:18;16.20;;;5.18;;
41253;SDS011;26987;59.928;30.306;2022-11-22T06:14:46;12.02;;;4.82;;
41253;SDS011;26987;59.928;30.306;2022-11-22T06:17:13;12.82;;;6.40;;
41253;SDS011;26987;59.928;30.306;2022-11-22T06:19:41;11.98;;;5.80;;
41253;SDS011;26987;59.928;30.306;2022-11-22T06:22:10;14.48;;;5.80;;
41253;SDS011;26987;59.928;30.306;2022-11-22T06:24:38;12.18;;;4.63;;
41253;SDS011;26987;59.928;30.306;2022-11-22T06:27:07;17.50;;;5.03;;
41253;SDS011;26987;59.928;30.306;2022-11-22T06:29:35;17.77;;;6.55;;
41253;SDS011;26987;59.928;30.306;2022-11-22T06:32:03;11.25;;;4.75;;
41253;SDS011;26987;59.928;30.306;2022-11-22T06:34:30;15.05;;;5.95;;
41253;SDS011;26987;59.928;30.306;2022-11-22T06:36:58;14.68;;;5.72;;
41253;SDS011;26987;59.928;30.306;2022-11-22T06:39:27;11.32;;;5.00;;
41253;SDS011;26987;59.928;30.306;2022-11-22T06:41:55;10.13;;;4.63;;
41253;SDS011;26987;59.928;30.306;2022-11-22T06:44:22;7.22;;;4.18;;
41253;SDS011;26987;59.928;30.306;2022-11-22T06:46:50;13.68;;;5.40;;
41253;SDS011;26987;59.928;30.306;2022-11-22T06:49:18;13.18;;;5.63;;
41253;SDS011;26987;59.928;30.306;2022-11-22T06:51:45;10.70;;;5.30;;
41253;SDS011;26987;59.928;30.306;2022-11-22T06:54:13;8.88;;;4.43;;
41253;SDS011;26987;59.928;30.306;2022-11-22T06:56:42;13.77;;;5.05;;
41253;SDS011;26987;59.928;30.306;2022-11-22T06:59:10;9.90;;;4.93;;
41253;SDS011;26987;59.928;30.306;2022-11-22T07:01:38;12.05;;;5.10;;
41253;SDS011;26987;59.928;30.306;2022-11-22T07:04:05;8.73;;;4.40;;
41253;SDS011;26987;59.928;30.306;2022-11-22T07:06:34;20.88;;;6.47;;
41253;SDS011;26987;59.928;30.306;2022-11-22T07:09:03;8.82;;;4.25;;
41253;SDS011;26987;59.928;30.306;2022-11-22T07:11:32;13.55;;;7.63;;
41253;SDS011;26987;59.928;30.306;2022-11-22T07:14:03;15.68;;;6.03;;
41253;SDS011;26987;59.928;30.306;2022-11-22T07:16:31;12.70;;;5.32;;
41253;SDS011;26987;59.928;30.306;2022-11-22T07:18:59;15.80;;;7.28;;
41253;SDS011;26987;59.928;30.306;2022-11-22T07:21:27;19.55;;;6.65;;
41253;SDS011;26987;59.928;30.306;2022-11-22T07:23:54;16.23;;;6.72;;
41253;SDS011;26987;59.928;30.306;2022-11-22T07:26:23;11.18;;;4.38;;
41253;SDS011;26987;59.928;30.306;2022-11-22T07:28:53;23.02;;;7.78;;
41253;SDS011;26987;59.928;30.306;2022-11-22T07:31:22;12.90;;;5.75;;
41253;SDS011;26987;59.928;30.306;2022-11-22T07:33:51;16.17;;;6.82;;
41253;SDS011;26987;59.928;30.306;2022-11-22T07:36:19;22.98;;;9.27;;
41253;SDS011;26987;59.928;30.306;2022-11-22T07:38:48;17.40;;;6.80;;
41253;SDS011;26987;59.928;30.306;2022-11-22T07:41:16;23.48;;;8.20;;
41253;SDS011;26987;59.928;30.306;2022-11-22T07:43:47;26.00;;;7.50;;
41253;SDS011;26987;59.928;30.306;2022-11-22T07:46:17;20.52;;;9.13;;
41253;SDS011;26987;59.928;30.306;2022-11-22T07:48:50;38.67;;;8.75;;
41253;SDS011;26987;59.928;30.306;2022-11-22T07:51:18;26.80;;;9.80;;
41253;SDS011;26987;59.928;30.306;2022-11-22T07:53:46;17.80;;;7.28;;
41253;SDS011;26987;59.928;30.306;2022-11-22T07:56:14;24.42;;;8.20;;
41253;SDS011;26987;59.928;30.306;2022-11-22T07:58:42;24.75;;;7.82;;
41253;SDS011;26987;59.928;30.306;2022-11-22T08:01:10;19.23;;;8.18;;
41253;SDS011;26987;59.928;30.306;2022-11-22T08:03:39;21.70;;;7.55;;
41253;SDS011;26987;59.928;30.306;2022-11-22T08:06:10;22.60;;;8.43;;
41253;SDS011;26987;59.928;30.306;2022-11-22T08:08:38;26.48;;;9.60;;
41253;SDS011;26987;59.928;30.306;2022-11-22T08:11:06;22.50;;;7.97;;
41253;SDS011;26987;59.928;30.306;2022-11-22T08:13:34;27.45;;;9.93;;
41253;SDS011;26987;59.928;30.306;2022-11-22T08:16:02;32.42;;;10.45;;
41253;SDS011;26987;59.928;30.306;2022-11-22T08:18:32;17.73;;;6.72;;
41253;SDS011;26987;59.928;30.306;2022-11-22T08:21:01;26.90;;;8.43;;
41253;SDS011;26987;59.928;30.306;2022-11-22T08:23:31;24.00;;;7.60;;
41253;SDS011;26987;59.928;30.306;2022-11-22T08:25:59;25.40;;;9.25;;
41253;SDS011;26987;59.928;30.306;2022-11-22T08:28:26;24.95;;;7.13;;
41253;SDS011;26987;59.928;30.306;2022-11-22T08:30:58;21.88;;;7.00;;
41253;SDS011;26987;59.928;30.306;2022-11-22T08:33:27;26.50;;;9.05;;
41253;SDS011;26987;59.928;30.306;2022-11-22T08:35:55;31.05;;;7.57;;
41253;SDS011;26987;59.928;30.306;2022-11-22T08:38:22;15.82;;;6.13;;
41253;SDS011;26987;59.928;30.306;2022-11-22T08:40:52;21.15;;;7.35;;
41253;SDS011;26987;59.928;30.306;2022-11-22T08:43:20;16.83;;;5.57;;
41253;SDS011;26987;59.928;30.306;2022-11-22T08:45:47;23.75;;;8.07;;
41253;SDS011;26987;59.928;30.306;2022-11-22T08:48:19;24.48;;;7.43;;
41253;SDS011;26987;59.928;30.306;2022-11-22T08:50:48;19.63;;;7.35;;
41253;SDS011;26987;59.928;30.306;2022-11-22T08:53:17;24.40;;;7.07;;
41253;SDS011;26987;59.928;30.306;2022-11-22T08:55:44;22.75;;;7.20;;
41253;SDS011;26987;59.928;30.306;2022-11-22T08:58:14;26.00;;;8.63;;
41253;SDS011;26987;59.928;30.306;2022-11-22T09:00:42;19.70;;;6.82;;
41253;SDS011;26987;59.928;30.306;2022-11-22T09:03:09;21.85;;;9.05;;
41253;SDS011;26987;59.928;30.306;2022-11-22T09:05:37;24.83;;;7.00;;
41253;SDS011;26987;59.928;30.306;2022-11-22T09:08:05;19.40;;;8.02;;
41253;SDS011;26987;59.928;30.306;2022-11-22T09:10:32;17.92;;;6.13;;
41253;SDS011;26987;59.928;30.306;2022-11-22T09:13:00;20.13;;;7.43;;
41253;SDS011;26987;59.928;30.306;2022-11-22T09:15:29;15.88;;;5.78;;
41253;SDS011;26987;59.928;30.306;2022-11-22T09:18:00;20.08;;;7.07;;
41253;SDS011;26987;59.928;30.306;2022-11-22T09:20:28;21.95;;;7.72;;
41253;SDS011;26987;59.928;30.306;2022-11-22T09:22:55;29.23;;;7.25;;
41253;SDS011;26987;59.928;30.306;2022-11-22T09:25:23;19.88;;;7.55;;
41253;SDS011;26987;59.928;30.306;2022-11-22T09:27:51;28.02;;;6.50;;
41253;SDS011;26987;59.928;30.306;2022-11-22T09:30:18;13.32;;;4.07;;
41253;SDS011;26987;59.928;30.306;2022-11-22T09:32:48;19.70;;;8.20;;
41253;SDS011;26987;59.928;30.306;2022-11-22T09:35:16;22.27;;;6.82;;
41253;SDS011;26987;59.928;30.306;2022-11-22T09:37:45;23.95;;;7.80;;
41253;SDS011;26987;59.928;30.306;2022-11-22T09:40:13;21.48;;;7.78;;
41253;SDS011;26987;59.928;30.306;2022-11-22T09:42:53;16.67;;;7.07;;
41253;SDS011;26987;59.928;30.306;2022-11-22T09:48:42;20.80;;;7.47;;
41253;SDS011;26987;59.928;30.306;2022-11-22T09:51:21;19.48;;;6.68;;
41253;SDS011;26987;59.928;30.306;2022-11-22T09:53:54;17.48;;;6.90;;
41253;SDS011;26987;59.928;30.306;2022-11-22T09:56:28;22.90;;;6.72;;
41253;SDS011;26987;59.928;30.306;2022-11-22T09:58:57;28.60;;;6.80;;
41253;SDS011;26987;59.928;30.306;2022-11-22T10:01:31;21.25;;;5.70;;
41253;SDS011;26987;59.928;30.306;2022-11-22T10:04:08;14.48;;;4.80;;
41253;SDS011;26987;59.928;30.306;2022-11-22T10:06:39;18.92;;;6.28;;
41253;SDS011;26987;59.928;30.306;2022-11-22T10:09:15;17.70;;;5.18;;
41253;SDS011;26987;59.928;30.306;2022-11-22T10:11:53;18.60;;;6.05;;
41253;SDS011;26987;59.928;30.306;2022-11-22T10:14:28;17.60;;;6.60;;
41253;SDS011;26987;59.928;30.306;2022-11-22T10:17:14;19.15;;;6.18;;
41253;SDS011;26987;59.928;30.306;2022-11-22T10:19:51;17.08;;;5.82;;
41253;SDS011;26987;59.928;30.306;2022-11-22T10:22:27;25.67;;;6.63;;
41253;SDS011;26987;59.928;30.306;2022-11-22T10:24:57;15.98;;;5.53;;
41253;SDS011;26987;59.928;30.306;2022-11-22T10:27:26;12.88;;;3.95;;
41253;SDS011;26987;59.928;30.306;2022-11-22T10:29:58;12.10;;;3.88;;
41253;SDS011;26987;59.928;30.306;2022-11-22T10:32:32;17.90;;;5.78;;
41253;SDS011;26987;59.928;30.306;2022-11-22T10:35:14;16.20;;;5.35;;
41253;SDS011;26987;59.928;30.306;2022-11-22T10:38:24;13.57;;;5.55;;
41253;SDS011;26987;59.928;30.306;2022-11-22T10:41:24;12.45;;;4.55;;
41253;SDS011;26987;59.928;30.306;2022-11-22T10:44:02;17.75;;;4.35;;
41253;SDS011;26987;59.928;30.306;2022-11-22T10:46:42;16.17;;;4.80;;
41253;SDS011;26987;59.928;30.306;2022-11-22T10:49:19;18.52;;;5.55;;
41253;SDS011;26987;59.928;30.306;2022-11-22T10:51:55;12.73;;;4.38;;
41253;SDS011;26987;59.928;30.306;2022-11-22T10:54:30;16.10;;;5.88;;
41253;SDS011;26987;59.928;30.306;2022-11-22T10:57:07;12.90;;;5.38;;
41253;SDS011;26987;59.928;30.306;2022-11-22T10:59:48;13.55;;;4.60;;
41253;SDS011;26987;59.928;30.306;2022-11-22T11:02:34;16.65;;;4.85;;
41253;SDS011;26987;59.928;30.306;2022-11-22T11:05:15;14.80;;;4.78;;
41253;SDS011;26987;59.928;30.306;2022-11-22T11:07:48;20.90;;;6.10;;
41253;SDS011;26987;59.928;30.306;2022-11-22T11:10:20;14.38;;;4.53;;
41253;SDS011;26987;59.928;30.306;2022-11-22T11:12:49;18.80;;;5.07;;
41253;SDS011;26987;59.928;30.306;2022-11-22T11:15:22;7.97;;;3.67;;
41253;SDS011;26987;59.928;30.306;2022-11-22T11:17:54;18.65;;;4.78;;
41253;SDS011;26987;59.928;30.306;2022-11-22T11:20:30;24.35;;;6.05;;
41253;SDS011;26987;59.928;30.306;2022-11-22T11:23:04;10.52;;;3.78;;
41253;SDS011;26987;59.928;30.306;2022-11-22T11:25:32;12.27;;;4.07;;
41253;SDS011;26987;59.928;30.306;2022-11-22T11:28:06;16.85;;;4.60;;
41253;SDS011;26987;59.928;30.306;2022-11-22T11:30:36;13.25;;;3.97;;
41253;SDS011;26987;59.928;30.306;2022-11-22T11:33:13;14.05;;;4.28;;
41253;SDS011;26987;59.928;30.306;2022-11-22T11:35:44;12.13;;;3.75;;
41253;SDS011;26987;59.928;30.306;2022-11-22T11:38:26;17.40;;;5.60;;
41253;SDS011;26987;59.928;30.306;2022-11-22T11:43:43;8.52;;;4.60;;
41253;SDS011;26987;59.928;30.306;2022-11-22T11:46:14;10.32;;;3.85;;
41253;SDS011;26987;59.928;30.306;2022-11-22T11:48:44;12.75;;;4.72;;
41253;SDS011;26987;59.928;30.306;2022-11-22T11:51:13;13.13;;;5.07;;
41253;SDS011;26987;59.928;30.306;2022-11-22T11:53:53;9.48;;;4.15;;
41253;SDS011;26987;59.928;30.306;2022-11-22T11:56:38;11.07;;;4.50;;
41253;SDS011;26987;59.928;30.306;2022-11-22T11:59:12;15.63;;;4.90;;
41253;SDS011;26987;59.928;30.306;2022-11-22T12:01:45;11.32;;;4.47;;
41253;SDS011;26987;59.928;30.306;2022-11-22T12:04:18;13.73;;;3.72;;
41253;SDS011;26987;59.928;30.306;2022-11-22T12:06:59;12.63;;;4.13;;
41253;SDS011;26987;59.928;30.306;2022-11-22T12:09:32;10.48;;;3.83;;
41253;SDS011;26987;59.928;30.306;2022-11-22T12:12:07;9.60;;;3.58;;
41253;SDS011;26987;59.928;30.306;2022-11-22T12:14:41;12.43;;;5.07;;
41253;SDS011;26987;59.928;30.306;2022-11-22T12:17:20;8.80;;;4.18;;
41253;SDS011;26987;59.928;30.306;2022-11-22T12:22:27;10.30;;;4.07;;
41253;SDS011;26987;59.928;30.306;2022-11-22T12:25:04;13.52;;;3.55;;
41253;SDS011;26987;59.928;30.306;2022-11-22T12:27:42;7.50;;;2.95;;
41253;SDS011;26987;59.928;30.306;2022-11-22T12:30:10;11.57;;;4.28;;
41253;SDS011;26987;59.928;30.306;2022-11-22T12:32:39;11.45;;;4.13;;
41253;SDS011;26987;59.928;30.306;2022-11-22T12:35:11;7.68;;;3.58;;
41253;SDS011;26987;59.928;30.306;2022-11-22T12:37:43;7.97;;;3.50;;
41253;SDS011;26987;59.928;30.306;2022-11-22T12:40:22;15.45;;;4.75;;
41253;SDS011;26987;59.928;30.306;2022-11-22T12:42:53;12.15;;;4.57;;
41253;SDS011;26987;59.928;30.306;2022-11-22T12:45:26;10.07;;;3.63;;
41253;SDS011;26987;59.928;30.306;2022-11-22T12:47:56;5.53;;;2.35;;
41253;SDS011;26987;59.928;30.306;2022-11-22T12:50:32;10.00;;;4.03;;
41253;SDS011;26987;59.928;30.306;2022-11-22T12:53:05;12.18;;;3.80;;
41253;SDS011;26987;59.928;30.306;2022-11-22T12:55:42;8.85;;;4.43;;
41253;SDS011;26987;59.928;30.306;2022-11-22T12:58:17;8.15;;;2.72;;
41253;SDS011;26987;59.928;30.306;2022-11-22T13:00:53;8.32;;;3.85;;
41253;SDS011;26987;59.928;30.306;2022-11-22T13:03:29;10.50;;;3.90;;
41253;SDS011;26987;59.928;30.306;2022-11-22T13:06:02;9.18;;;3.95;;
41253;SDS011;26987;59.928;30.306;2022-11-22T13:08:35;9.50;;;3.80;;
41253;SDS011;26987;59.928;30.306;2022-11-22T13:11:10;13.57;;;4.47;;
41253;SDS011;26987;59.928;30.306;2022-11-22T13:13:41;9.88;;;4.10;;
41253;SDS011;26987;59.928;30.306;2022-11-22T13:16:12;11.20;;;3.63;;
41253;SDS011;26987;59.928;30.306;2022-11-22T13:18:40;7.72;;;3.00;;
41253;SDS011;26987;59.928;30.306;2022-11-22T13:21:14;3.80;;;2.00;;
41253;SDS011;26987;59.928;30.306;2022-11-22T13:23:52;6.47;;;2.80;;
41253;SDS011;26987;59.928;30.306;2022-11-22T13:26:30;9.50;;;3.40;;
41253;SDS011;26987;59.928;30.306;2022-11-22T13:29:08;5.97;;;3.30;;
41253;SDS011;26987;59.928;30.306;2022-11-22T13:34:26;10.65;;;3.65;;
41253;SDS011;26987;59.928;30.306;2022-11-22T13:36:59;11.07;;;3.60;;
41253;SDS011;26987;59.928;30.306;2022-11-22T13:39:31;8.77;;;3.72;;
41253;SDS011;26987;59.928;30.306;2022-11-22T13:42:03;6.70;;;3.22;;
41253;SDS011;26987;59.928;30.306;2022-11-22T13:44:33;10.52;;;3.55;;
41253;SDS011;26987;59.928;30.306;2022-11-22T13:55:48;10.57;;;4.45;;
41253;SDS011;26987;59.928;30.306;2022-11-22T13:58:47;11.00;;;3.28;;
41253;SDS011;26987;59.928;30.306;2022-11-22T14:04:32;11.13;;;5.43;;
41253;SDS011;26987;59.928;30.306;2022-11-22T14:07:04;7.20;;;3.30;;
41253;SDS011;26987;59.928;30.306;2022-11-22T14:09:53;7.13;;;3.97;;
41253;SDS011;26987;59.928;30.306;2022-11-22T14:12:35;9.45;;;3.58;;
41253;SDS011;26987;59.928;30.306;2022-11-22T14:15:22;12.57;;;5.38;;
41253;SDS011;26987;59.928;30.306;2022-11-22T14:20:52;5.57;;;2.92;;
41253;SDS011;26987;59.928;30.306;2022-11-22T14:23:29;12.88;;;4.18;;
41253;SDS011;26987;59.928;30.306;2022-11-22T14:26:09;10.48;;;3.42;;
41253;SDS011;26987;59.928;30.306;2022-11-22T14:31:45;11.52;;;3.70;;
41253;SDS011;26987;59.928;30.306;2022-11-22T14:34:21;7.25;;;3.90;;
41253;SDS011;26987;59.928;30.306;2022-11-22T14:40:01;7.90;;;2.58;;
41253;SDS011;26987;59.928;30.306;2022-11-22T14:42:51;8.30;;;3.58;;
41253;SDS011;26987;59.928;30.306;2022-11-22T14:45:22;13.27;;;4.45;;
41253;SDS011;26987;59.928;30.306;2022-11-22T14:48:00;9.00;;;2.95;;
41253;SDS011;26987;59.928;30.306;2022-11-22T14:50:32;9.73;;;3.35;;
41253;SDS011;26987;59.928;30.306;2022-11-22T14:53:06;6.53;;;3.17;;
41253;SDS011;26987;59.928;30.306;2022-11-22T14:55:44;10.38;;;3.65;;
41253;SDS011;26987;59.928;30.306;2022-11-22T14:58:14;7.88;;;2.45;;
41253;SDS011;26987;59.928;30.306;2022-11-22T15:00:55;9.38;;;4.22;;
41253;SDS011;26987;59.928;30.306;2022-11-22T15:04:01;10.20;;;3.13;;
41253;SDS011;26987;59.928;30.306;2022-11-22T15:06:51;7.20;;;3.25;;
41253;SDS011;26987;59.928;30.306;2022-11-22T15:09:39;17.17;;;3.60;;
41253;SDS011;26987;59.928;30.306;2022-11-22T15:12:29;9.82;;;2.47;;
41253;SDS011;26987;59.928;30.306;2022-11-22T15:17:54;8.23;;;3.42;;
41253;SDS011;26987;59.928;30.306;2022-11-22T15:23:12;5.07;;;2.53;;
41253;SDS011;26987;59.928;30.306;2022-11-22T15:25:44;5.95;;;2.78;;